sensor_id;sensor_type;location;lat;lon;timestamp;pressure;altitude;pressure_sealevel;temperature;humidity
68141;BME280;54941;52.220;104.306;2023-03-26T00:01:26;96406.56;;;-1.42;67.73
68141;BME280;54941;52.220;104.306;2023-03-26T00:03:53;96409.09;;;-1.33;67.53
68141;BME280;54941;52.220;104.306;2023-03-26T00:06:21;96413.22;;;-1.41;62.81
68141;BME280;54941;52.220;104.306;2023-03-26T00:08:49;96409.41;;;-1.17;60.39
68141;BME280;54941;52.220;104.306;2023-03-26T00:11:16;96419.09;;;-1.22;57.63
68141;BME280;54941;52.220;104.306;2023-03-26T00:13:44;96431.78;;;-1.12;58.87
68141;BME280;54941;52.220;104.306;2023-03-26T00:16:11;96431.00;;;-0.93;59.92
68141;BME280;54941;52.220;104.306;2023-03-26T00:18:39;96429.25;;;-0.93;59.89
68141;BME280;54941;52.220;104.306;2023-03-26T00:21:06;96426.31;;;-0.98;62.74
68141;BME280;54941;52.220;104.306;2023-03-26T00:23:34;96424.19;;;-0.83;60.58
68141;BME280;54941;52.220;104.306;2023-03-26T00:26:01;96421.53;;;-0.72;60.48
68141;BME280;54941;52.220;104.306;2023-03-26T00:28:28;96430.16;;;-0.46;62.22
68141;BME280;54941;52.220;104.306;2023-03-26T00:30:58;96432.44;;;-0.43;61.58
68141;BME280;54941;52.220;104.306;2023-03-26T00:33:24;96424.97;;;-0.54;63.91
68141;BME280;54941;52.220;104.306;2023-03-26T00:35:54;96426.97;;;-0.38;63.45
68141;BME280;54941;52.220;104.306;2023-03-26T00:38:21;96427.56;;;-0.17;62.00
68141;BME280;54941;52.220;104.306;2023-03-26T00:40:48;96426.78;;;-0.08;60.59
68141;BME280;54941;52.220;104.306;2023-03-26T00:43:15;96432.59;;;0.02;60.78
68141;BME280;54941;52.220;104.306;2023-03-26T00:45:41;96435.84;;;-0.15;61.72
68141;BME280;54941;52.220;104.306;2023-03-26T00:48:07;96434.31;;;0.02;62.70
68141;BME280;54941;52.220;104.306;2023-03-26T00:50:34;96442.38;;;0.24;62.03
68141;BME280;54941;52.220;104.306;2023-03-26T00:53:01;96446.13;;;0.20;60.05
68141;BME280;54941;52.220;104.306;2023-03-26T00:55:28;96446.75;;;0.32;57.83
68141;BME280;54941;52.220;104.306;2023-03-26T00:57:54;96452.75;;;0.31;56.42
68141;BME280;54941;52.220;104.306;2023-03-26T01:00:27;96456.75;;;0.33;52.85
68141;BME280;54941;52.220;104.306;2023-03-26T01:02:54;96454.38;;;0.32;52.14
68141;BME280;54941;52.220;104.306;2023-03-26T01:05:40;96458.25;;;0.26;52.96
68141;BME280;54941;52.220;104.306;2023-03-26T01:08:15;96459.91;;;0.45;53.41
68141;BME280;54941;52.220;104.306;2023-03-26T01:10:43;96467.09;;;0.49;54.00
68141;BME280;54941;52.220;104.306;2023-03-26T01:13:10;96463.38;;;0.71;53.55
68141;BME280;54941;52.220;104.306;2023-03-26T01:15:36;96461.78;;;0.97;54.98
68141;BME280;54941;52.220;104.306;2023-03-26T01:18:03;96470.56;;;1.03;54.00
68141;BME280;54941;52.220;104.306;2023-03-26T01:20:32;96466.00;;;1.24;53.31
68141;BME280;54941;52.220;104.306;2023-03-26T01:23:01;96468.97;;;1.37;52.56
68141;BME280;54941;52.220;104.306;2023-03-26T01:25:36;96467.22;;;1.56;51.33
68141;BME280;54941;52.220;104.306;2023-03-26T01:28:07;96467.78;;;1.67;50.17
68141;BME280;54941;52.220;104.306;2023-03-26T01:30:38;96465.69;;;1.63;52.30
68141;BME280;54941;52.220;104.306;2023-03-26T01:33:09;96461.78;;;1.68;53.40
68141;BME280;54941;52.220;104.306;2023-03-26T01:35:43;96459.06;;;1.87;54.18
68141;BME280;54941;52.220;104.306;2023-03-26T01:38:19;96461.19;;;2.00;54.05
68141;BME280;54941;52.220;104.306;2023-03-26T01:40:53;96461.94;;;1.92;54.52
68141;BME280;54941;52.220;104.306;2023-03-26T01:43:27;96463.78;;;2.08;55.31
68141;BME280;54941;52.220;104.306;2023-03-26T01:46:00;96468.81;;;2.26;54.09
68141;BME280;54941;52.220;104.306;2023-03-26T01:48:34;96465.28;;;2.53;54.08
68141;BME280;54941;52.220;104.306;2023-03-26T01:51:01;96468.53;;;2.71;52.75
68141;BME280;54941;52.220;104.306;2023-03-26T01:53:28;96468.84;;;2.68;52.08
68141;BME280;54941;52.220;104.306;2023-03-26T01:56:04;96461.56;;;2.73;52.28
68141;BME280;54941;52.220;104.306;2023-03-26T01:58:36;96460.94;;;2.79;54.18
68141;BME280;54941;52.220;104.306;2023-03-26T02:01:12;96458.50;;;2.61;56.42
68141;BME280;54941;52.220;104.306;2023-03-26T02:03:46;96454.13;;;2.87;56.10
68141;BME280;54941;52.220;104.306;2023-03-26T02:06:19;96454.00;;;2.47;56.43
68141;BME280;54941;52.220;104.306;2023-03-26T02:08:51;96449.31;;;2.68;55.78
68141;BME280;54941;52.220;104.306;2023-03-26T02:11:20;96445.44;;;3.14;53.48
68141;BME280;54941;52.220;104.306;2023-03-26T02:13:47;96442.13;;;3.70;52.15
68141;BME280;54941;52.220;104.306;2023-03-26T02:16:15;96442.78;;;3.72;53.00
68141;BME280;54941;52.220;104.306;2023-03-26T02:18:42;96439.38;;;3.15;54.20
68141;BME280;54941;52.220;104.306;2023-03-26T02:21:12;96439.41;;;3.23;53.35
68141;BME280;54941;52.220;104.306;2023-03-26T02:23:41;96451.34;;;3.55;52.58
68141;BME280;54941;52.220;104.306;2023-03-26T02:26:09;96434.66;;;3.77;51.84
68141;BME280;54941;52.220;104.306;2023-03-26T02:28:38;96441.03;;;3.57;52.18
68141;BME280;54941;52.220;104.306;2023-03-26T02:31:05;96438.78;;;3.94;51.13
68141;BME280;54941;52.220;104.306;2023-03-26T02:33:32;96437.50;;;3.74;52.47
68141;BME280;54941;52.220;104.306;2023-03-26T02:36:02;96434.94;;;4.06;51.45
68141;BME280;54941;52.220;104.306;2023-03-26T02:38:30;96432.91;;;4.32;50.99
68141;BME280;54941;52.220;104.306;2023-03-26T02:40:57;96435.50;;;5.25;49.24
68141;BME280;54941;52.220;104.306;2023-03-26T02:43:23;96429.56;;;5.32;47.85
68141;BME280;54941;52.220;104.306;2023-03-26T02:45:51;96439.47;;;5.05;48.05
68141;BME280;54941;52.220;104.306;2023-03-26T02:48:17;96428.34;;;4.98;48.48
68141;BME280;54941;52.220;104.306;2023-03-26T02:50:44;96427.13;;;6.28;46.29
68141;BME280;54941;52.220;104.306;2023-03-26T02:53:12;96424.03;;;6.62;44.84
68141;BME280;54941;52.220;104.306;2023-03-26T02:55:41;96421.78;;;6.38;45.83
68141;BME280;54941;52.220;104.306;2023-03-26T02:58:07;96418.56;;;6.51;45.53
68141;BME280;54941;52.220;104.306;2023-03-26T03:00:34;96416.00;;;6.51;45.72
68141;BME280;54941;52.220;104.306;2023-03-26T03:03:02;96420.69;;;6.18;46.13
68141;BME280;54941;52.220;104.306;2023-03-26T03:05:29;96421.94;;;6.51;44.32
68141;BME280;54941;52.220;104.306;2023-03-26T03:07:55;96420.84;;;7.32;41.89
68141;BME280;54941;52.220;104.306;2023-03-26T03:10:22;96419.13;;;7.39;41.01
68141;BME280;54941;52.220;104.306;2023-03-26T03:12:48;96421.53;;;8.45;39.66
68141;BME280;54941;52.220;104.306;2023-03-26T03:15:18;96412.75;;;8.67;38.47
68141;BME280;54941;52.220;104.306;2023-03-26T03:17:45;96414.13;;;8.70;38.59
68141;BME280;54941;52.220;104.306;2023-03-26T03:20:13;96404.41;;;8.59;38.41
68141;BME280;54941;52.220;104.306;2023-03-26T03:22:39;96405.75;;;8.55;38.41
68141;BME280;54941;52.220;104.306;2023-03-26T03:25:06;96398.69;;;9.31;38.02
68141;BME280;54941;52.220;104.306;2023-03-26T03:27:33;96399.09;;;9.67;33.63
68141;BME280;54941;52.220;104.306;2023-03-26T03:29:59;96404.63;;;9.97;34.58
68141;BME280;54941;52.220;104.306;2023-03-26T03:32:26;96402.56;;;8.94;32.08
68141;BME280;54941;52.220;104.306;2023-03-26T03:34:52;96395.09;;;9.32;31.09
68141;BME280;54941;52.220;104.306;2023-03-26T03:37:23;96386.63;;;9.38;31.81
68141;BME280;54941;52.220;104.306;2023-03-26T03:39:49;96385.81;;;9.83;29.67
68141;BME280;54941;52.220;104.306;2023-03-26T03:42:16;96376.69;;;10.13;31.12
68141;BME280;54941;52.220;104.306;2023-03-26T03:44:42;96376.28;;;10.30;32.53
68141;BME280;54941;52.220;104.306;2023-03-26T03:47:09;96370.94;;;10.75;31.58
68141;BME280;54941;52.220;104.306;2023-03-26T03:49:35;96370.19;;;9.58;32.89
68141;BME280;54941;52.220;104.306;2023-03-26T03:52:01;96361.50;;;9.66;34.57
68141;BME280;54941;52.220;104.306;2023-03-26T03:54:29;96361.22;;;10.33;33.19
68141;BME280;54941;52.220;104.306;2023-03-26T03:56:56;96359.69;;;9.14;35.18
68141;BME280;54941;52.220;104.306;2023-03-26T03:59:22;96361.75;;;8.71;36.35
68141;BME280;54941;52.220;104.306;2023-03-26T04:01:49;96356.94;;;7.79;39.32
68141;BME280;54941;52.220;104.306;2023-03-26T04:04:15;96352.69;;;7.93;38.76
68141;BME280;54941;52.220;104.306;2023-03-26T04:06:42;96342.84;;;8.98;36.21
68141;BME280;54941;52.220;104.306;2023-03-26T04:09:09;96353.66;;;8.74;36.88
68141;BME280;54941;52.220;104.306;2023-03-26T04:11:37;96342.88;;;9.11;36.13
68141;BME280;54941;52.220;104.306;2023-03-26T04:14:04;96344.44;;;8.93;36.82
68141;BME280;54941;52.220;104.306;2023-03-26T04:16:30;96341.28;;;9.17;34.79
68141;BME280;54941;52.220;104.306;2023-03-26T04:18:57;96345.06;;;9.67;34.68
68141;BME280;54941;52.220;104.306;2023-03-26T04:21:23;96337.88;;;10.66;28.95
68141;BME280;54941;52.220;104.306;2023-03-26T04:23:50;96339.91;;;11.51;26.83
68141;BME280;54941;52.220;104.306;2023-03-26T04:26:17;96344.41;;;10.17;28.01
68141;BME280;54941;52.220;104.306;2023-03-26T04:28:47;96335.34;;;9.10;29.44
68141;BME280;54941;52.220;104.306;2023-03-26T04:31:16;96335.75;;;9.66;29.21
68141;BME280;54941;52.220;104.306;2023-03-26T04:33:45;96332.59;;;9.70;28.29
68141;BME280;54941;52.220;104.306;2023-03-26T04:36:12;96333.91;;;9.99;28.11
68141;BME280;54941;52.220;104.306;2023-03-26T04:38:42;96331.59;;;9.58;28.67
68141;BME280;54941;52.220;104.306;2023-03-26T04:41:10;96320.88;;;8.83;29.18
68141;BME280;54941;52.220;104.306;2023-03-26T04:43:37;96324.03;;;8.71;30.10
68141;BME280;54941;52.220;104.306;2023-03-26T04:46:05;96330.31;;;8.62;29.93
68141;BME280;54941;52.220;104.306;2023-03-26T04:48:32;96315.44;;;8.51;29.48
68141;BME280;54941;52.220;104.306;2023-03-26T04:50:58;96319.72;;;9.18;28.43
68141;BME280;54941;52.220;104.306;2023-03-26T04:53:25;96314.50;;;8.65;28.85
68141;BME280;54941;52.220;104.306;2023-03-26T04:55:55;96308.44;;;8.93;28.56
68141;BME280;54941;52.220;104.306;2023-03-26T04:58:23;96301.53;;;9.13;28.79
68141;BME280;54941;52.220;104.306;2023-03-26T05:00:49;96303.16;;;8.34;30.42
68141;BME280;54941;52.220;104.306;2023-03-26T05:03:17;96308.09;;;8.35;31.46
68141;BME280;54941;52.220;104.306;2023-03-26T05:05:43;96307.72;;;8.38;31.27
68141;BME280;54941;52.220;104.306;2023-03-26T05:08:10;96305.81;;;8.19;30.54
68141;BME280;54941;52.220;104.306;2023-03-26T05:10:36;96304.66;;;8.75;30.39
68141;BME280;54941;52.220;104.306;2023-03-26T05:13:03;96304.72;;;9.08;29.88
68141;BME280;54941;52.220;104.306;2023-03-26T05:15:29;96301.13;;;9.03;29.99
68141;BME280;54941;52.220;104.306;2023-03-26T05:17:56;96299.16;;;9.11;29.74
68141;BME280;54941;52.220;104.306;2023-03-26T05:20:29;96292.84;;;9.07;29.71
68141;BME280;54941;52.220;104.306;2023-03-26T05:22:55;96295.00;;;9.17;29.49
68141;BME280;54941;52.220;104.306;2023-03-26T05:25:22;96290.47;;;9.12;29.29
68141;BME280;54941;52.220;104.306;2023-03-26T05:27:48;96288.50;;;9.01;29.48
68141;BME280;54941;52.220;104.306;2023-03-26T05:30:16;96284.13;;;8.95;29.98
68141;BME280;54941;52.220;104.306;2023-03-26T05:32:43;96285.84;;;9.73;28.30
68141;BME280;54941;52.220;104.306;2023-03-26T05:35:09;96282.75;;;9.12;29.51
68141;BME280;54941;52.220;104.306;2023-03-26T05:37:38;96280.94;;;8.73;29.80
68141;BME280;54941;52.220;104.306;2023-03-26T05:40:06;96279.56;;;9.17;29.28
68141;BME280;54941;52.220;104.306;2023-03-26T05:42:34;96275.81;;;9.33;28.88
68141;BME280;54941;52.220;104.306;2023-03-26T05:45:00;96276.25;;;10.07;27.57
68141;BME280;54941;52.220;104.306;2023-03-26T05:47:27;96272.06;;;9.48;28.57
68141;BME280;54941;52.220;104.306;2023-03-26T05:49:53;96267.25;;;9.78;27.58
68141;BME280;54941;52.220;104.306;2023-03-26T05:52:20;96260.38;;;9.39;27.86
68141;BME280;54941;52.220;104.306;2023-03-26T05:54:47;96260.59;;;9.38;29.03
68141;BME280;54941;52.220;104.306;2023-03-26T05:57:14;96263.81;;;9.91;28.34
68141;BME280;54941;52.220;104.306;2023-03-26T05:59:40;96255.97;;;9.79;28.09
68141;BME280;54941;52.220;104.306;2023-03-26T06:02:07;96251.25;;;9.50;29.01
68141;BME280;54941;52.220;104.306;2023-03-26T06:04:34;96258.19;;;9.43;28.74
68141;BME280;54941;52.220;104.306;2023-03-26T06:07:01;96252.44;;;9.47;26.76
68141;BME280;54941;52.220;104.306;2023-03-26T06:09:27;96243.38;;;9.45;28.18
68141;BME280;54941;52.220;104.306;2023-03-26T06:11:55;96246.94;;;9.24;28.34
68141;BME280;54941;52.220;104.306;2023-03-26T06:14:21;96244.59;;;9.16;28.01
68141;BME280;54941;52.220;104.306;2023-03-26T06:16:48;96240.41;;;9.02;28.07
68141;BME280;54941;52.220;104.306;2023-03-26T06:19:14;96242.59;;;9.31;27.83
68141;BME280;54941;52.220;104.306;2023-03-26T06:21:40;96231.53;;;9.31;27.27
68141;BME280;54941;52.220;104.306;2023-03-26T06:24:07;96229.75;;;9.31;27.30
68141;BME280;54941;52.220;104.306;2023-03-26T06:26:33;96227.97;;;9.18;27.61
68141;BME280;54941;52.220;104.306;2023-03-26T06:29:01;96224.19;;;9.14;27.39
68141;BME280;54941;52.220;104.306;2023-03-26T06:31:28;96224.00;;;9.03;25.25
68141;BME280;54941;52.220;104.306;2023-03-26T06:33:54;96216.91;;;9.05;25.04
68141;BME280;54941;52.220;104.306;2023-03-26T06:36:21;96217.91;;;8.97;26.04
68141;BME280;54941;52.220;104.306;2023-03-26T06:38:47;96220.41;;;8.58;25.77
68141;BME280;54941;52.220;104.306;2023-03-26T06:41:14;96207.78;;;8.63;25.27
68141;BME280;54941;52.220;104.306;2023-03-26T06:43:40;96211.16;;;8.76;25.66
68141;BME280;54941;52.220;104.306;2023-03-26T06:46:08;96205.44;;;8.94;25.16
68141;BME280;54941;52.220;104.306;2023-03-26T06:48:35;96201.66;;;8.70;24.94
68141;BME280;54941;52.220;104.306;2023-03-26T06:51:01;96209.38;;;8.77;24.99
68141;BME280;54941;52.220;104.306;2023-03-26T06:53:28;96205.81;;;8.91;23.80
68141;BME280;54941;52.220;104.306;2023-03-26T06:55:54;96199.69;;;8.92;24.11
68141;BME280;54941;52.220;104.306;2023-03-26T06:58:20;96194.38;;;8.94;24.45
68141;BME280;54941;52.220;104.306;2023-03-26T07:00:47;96200.69;;;8.98;24.20
68141;BME280;54941;52.220;104.306;2023-03-26T07:03:15;96191.59;;;8.82;23.70
68141;BME280;54941;52.220;104.306;2023-03-26T07:05:41;96193.00;;;8.98;23.85
68141;BME280;54941;52.220;104.306;2023-03-26T07:08:08;96195.34;;;9.12;22.92
68141;BME280;54941;52.220;104.306;2023-03-26T07:10:34;96189.97;;;9.14;23.72
68141;BME280;54941;52.220;104.306;2023-03-26T07:13:00;96183.28;;;9.00;23.91
68141;BME280;54941;52.220;104.306;2023-03-26T07:15:27;96177.16;;;8.94;24.10
68141;BME280;54941;52.220;104.306;2023-03-26T07:17:54;96175.91;;;9.36;23.57
68141;BME280;54941;52.220;104.306;2023-03-26T07:20:22;96176.31;;;9.33;24.08
68141;BME280;54941;52.220;104.306;2023-03-26T07:22:49;96169.00;;;9.17;24.21
68141;BME280;54941;52.220;104.306;2023-03-26T07:25:16;96169.59;;;9.25;24.21
68141;BME280;54941;52.220;104.306;2023-03-26T07:27:49;96169.03;;;9.04;24.71
68141;BME280;54941;52.220;104.306;2023-03-26T07:30:23;96163.53;;;8.94;24.73
68141;BME280;54941;52.220;104.306;2023-03-26T07:32:56;96164.88;;;9.03;24.41
68141;BME280;54941;52.220;104.306;2023-03-26T07:35:29;96161.16;;;8.86;25.16
68141;BME280;54941;52.220;104.306;2023-03-26T07:38:12;96158.38;;;8.94;24.55
68141;BME280;54941;52.220;104.306;2023-03-26T07:40:54;96159.16;;;8.81;25.09
68141;BME280;54941;52.220;104.306;2023-03-26T07:43:34;96151.84;;;8.91;25.63
68141;BME280;54941;52.220;104.306;2023-03-26T07:46:07;96151.25;;;8.96;25.79
68141;BME280;54941;52.220;104.306;2023-03-26T07:48:39;96153.41;;;9.18;25.45
68141;BME280;54941;52.220;104.306;2023-03-26T07:51:09;96142.56;;;8.97;25.61
68141;BME280;54941;52.220;104.306;2023-03-26T07:53:36;96140.97;;;8.76;25.29
68141;BME280;54941;52.220;104.306;2023-03-26T07:56:08;96136.97;;;9.13;25.17
68141;BME280;54941;52.220;104.306;2023-03-26T08:01:39;96135.34;;;9.32;24.36
68141;BME280;54941;52.220;104.306;2023-03-26T08:04:23;96140.66;;;9.43;24.53
68141;BME280;54941;52.220;104.306;2023-03-26T08:06:57;96127.00;;;9.43;24.63
68141;BME280;54941;52.220;104.306;2023-03-26T08:09:31;96121.53;;;9.77;24.36
68141;BME280;54941;52.220;104.306;2023-03-26T08:12:06;96120.59;;;9.65;24.93
68141;BME280;54941;52.220;104.306;2023-03-26T08:14:47;96123.19;;;9.58;25.11
68141;BME280;54941;52.220;104.306;2023-03-26T08:17:25;96114.25;;;9.67;24.50
68141;BME280;54941;52.220;104.306;2023-03-26T08:20:03;96111.06;;;9.72;24.50
68141;BME280;54941;52.220;104.306;2023-03-26T08:22:36;96118.47;;;9.55;24.67
68141;BME280;54941;52.220;104.306;2023-03-26T08:25:16;96111.22;;;9.33;24.53
68141;BME280;54941;52.220;104.306;2023-03-26T08:27:52;96109.56;;;9.51;24.54
68141;BME280;54941;52.220;104.306;2023-03-26T08:30:25;96101.97;;;9.69;24.63
68141;BME280;54941;52.220;104.306;2023-03-26T08:32:54;96100.97;;;9.70;24.72
68141;BME280;54941;52.220;104.306;2023-03-26T08:35:21;96100.31;;;9.82;24.69
68141;BME280;54941;52.220;104.306;2023-03-26T08:37:49;96098.06;;;9.60;24.99
68141;BME280;54941;52.220;104.306;2023-03-26T08:40:23;96091.19;;;9.86;24.86
68141;BME280;54941;52.220;104.306;2023-03-26T08:43:11;96091.72;;;9.94;24.73
68141;BME280;54941;52.220;104.306;2023-03-26T08:45:57;96090.03;;;9.82;24.86
68141;BME280;54941;52.220;104.306;2023-03-26T08:51:57;96074.59;;;9.82;24.86
68141;BME280;54941;52.220;104.306;2023-03-26T08:58:18;96068.47;;;9.83;23.84
68141;BME280;54941;52.220;104.306;2023-03-26T09:01:11;96069.81;;;9.85;24.44
68141;BME280;54941;52.220;104.306;2023-03-26T09:07:06;96065.31;;;9.36;25.32
68141;BME280;54941;52.220;104.306;2023-03-26T09:16:03;96060.03;;;9.18;25.94
68141;BME280;54941;52.220;104.306;2023-03-26T09:22:01;96062.13;;;9.41;24.25
68141;BME280;54941;52.220;104.306;2023-03-26T09:27:38;96059.72;;;9.01;25.20
68141;BME280;54941;52.220;104.306;2023-03-26T09:33:31;96051.06;;;8.83;26.01
68141;BME280;54941;52.220;104.306;2023-03-26T09:36:17;96054.19;;;8.85;26.05
68141;BME280;54941;52.220;104.306;2023-03-26T09:38:51;96051.84;;;8.83;25.00
68141;BME280;54941;52.220;104.306;2023-03-26T09:41:28;96046.69;;;8.76;25.40
68141;BME280;54941;52.220;104.306;2023-03-26T09:49:52;96046.88;;;8.88;24.83
68141;BME280;54941;52.220;104.306;2023-03-26T09:52:41;96050.59;;;8.99;24.08
68141;BME280;54941;52.220;104.306;2023-03-26T09:55:32;96042.34;;;8.90;24.22
68141;BME280;54941;52.220;104.306;2023-03-26T09:58:41;96046.47;;;8.98;23.69
68141;BME280;54941;52.220;104.306;2023-03-26T10:01:16;96047.47;;;8.97;23.65
68141;BME280;54941;52.220;104.306;2023-03-26T10:03:56;96042.50;;;8.95;23.89
68141;BME280;54941;52.220;104.306;2023-03-26T10:06:35;96041.72;;;9.01;24.61
68141;BME280;54941;52.220;104.306;2023-03-26T10:09:28;96038.56;;;8.93;23.74
68141;BME280;54941;52.220;104.306;2023-03-26T10:12:17;96043.91;;;8.98;23.64
68141;BME280;54941;52.220;104.306;2023-03-26T10:14:53;96040.69;;;9.15;23.59
68141;BME280;54941;52.220;104.306;2023-03-26T10:17:39;96035.41;;;8.97;23.26
68141;BME280;54941;52.220;104.306;2023-03-26T10:20:36;96043.09;;;8.91;23.29
68141;BME280;54941;52.220;104.306;2023-03-26T10:23:21;96040.94;;;8.88;23.14
68141;BME280;54941;52.220;104.306;2023-03-26T10:26:04;96041.41;;;8.71;23.54
68141;BME280;54941;52.220;104.306;2023-03-26T10:28:46;96048.13;;;8.66;23.98
68141;BME280;54941;52.220;104.306;2023-03-26T10:31:41;96043.97;;;8.58;24.03
68141;BME280;54941;52.220;104.306;2023-03-26T10:34:13;96040.84;;;8.50;23.91
68141;BME280;54941;52.220;104.306;2023-03-26T10:36:48;96041.84;;;8.42;24.29
68141;BME280;54941;52.220;104.306;2023-03-26T10:39:33;96045.94;;;8.17;31.28
68141;BME280;54941;52.220;104.306;2023-03-26T10:42:24;96045.50;;;7.61;35.60
68141;BME280;54941;52.220;104.306;2023-03-26T10:47:58;96033.63;;;6.99;41.82
68141;BME280;54941;52.220;104.306;2023-03-26T10:50:34;96028.25;;;6.88;39.95
68141;BME280;54941;52.220;104.306;2023-03-26T10:53:11;96038.56;;;6.94;37.85
68141;BME280;54941;52.220;104.306;2023-03-26T10:55:41;96041.53;;;6.63;41.22
68141;BME280;54941;52.220;104.306;2023-03-26T10:58:12;96042.69;;;6.05;47.58
68141;BME280;54941;52.220;104.306;2023-03-26T11:00:45;96042.22;;;5.38;50.86
68141;BME280;54941;52.220;104.306;2023-03-26T11:03:35;96033.44;;;5.26;47.19
68141;BME280;54941;52.220;104.306;2023-03-26T11:06:15;96032.91;;;5.30;48.29
68141;BME280;54941;52.220;104.306;2023-03-26T11:08:54;96034.78;;;5.07;45.75
68141;BME280;54941;52.220;104.306;2023-03-26T11:11:26;96039.56;;;4.96;47.17
68141;BME280;54941;52.220;104.306;2023-03-26T11:14:02;96028.91;;;4.63;53.50
68141;BME280;54941;52.220;104.306;2023-03-26T11:16:37;96042.88;;;4.23;56.23
68141;BME280;54941;52.220;104.306;2023-03-26T11:19:17;96037.75;;;4.08;52.02
68141;BME280;54941;52.220;104.306;2023-03-26T11:21:54;96035.28;;;4.15;47.69
68141;BME280;54941;52.220;104.306;2023-03-26T11:24:58;96038.09;;;4.05;51.83
68141;BME280;54941;52.220;104.306;2023-03-26T11:27:44;96037.97;;;3.84;50.76
68141;BME280;54941;52.220;104.306;2023-03-26T11:30:22;96047.00;;;3.64;52.49
68141;BME280;54941;52.220;104.306;2023-03-26T11:32:56;96053.97;;;3.70;49.96
68141;BME280;54941;52.220;104.306;2023-03-26T11:35:27;96060.94;;;3.76;45.02
68141;BME280;54941;52.220;104.306;2023-03-26T11:37:56;96065.41;;;3.74;43.60
68141;BME280;54941;52.220;104.306;2023-03-26T11:40:28;96059.84;;;3.70;42.57
68141;BME280;54941;52.220;104.306;2023-03-26T11:43:00;96058.16;;;3.85;40.17
68141;BME280;54941;52.220;104.306;2023-03-26T11:45:27;96060.28;;;3.51;49.85
68141;BME280;54941;52.220;104.306;2023-03-26T11:47:58;96061.34;;;3.03;59.99
68141;BME280;54941;52.220;104.306;2023-03-26T11:50:31;96060.28;;;2.89;60.84
68141;BME280;54941;52.220;104.306;2023-03-26T11:53:10;96062.19;;;2.96;56.18
68141;BME280;54941;52.220;104.306;2023-03-26T11:55:46;96067.66;;;3.15;52.31
68141;BME280;54941;52.220;104.306;2023-03-26T11:58:22;96072.25;;;3.20;48.33
68141;BME280;54941;52.220;104.306;2023-03-26T12:00:51;96074.09;;;3.34;45.79
68141;BME280;54941;52.220;104.306;2023-03-26T12:03:19;96065.69;;;3.25;47.22
68141;BME280;54941;52.220;104.306;2023-03-26T12:05:47;96066.22;;;3.21;50.44
68141;BME280;54941;52.220;104.306;2023-03-26T12:08:18;96074.06;;;3.03;55.91
68141;BME280;54941;52.220;104.306;2023-03-26T12:10:50;96085.75;;;2.81;57.58
68141;BME280;54941;52.220;104.306;2023-03-26T12:13:36;96085.44;;;2.84;55.74
68141;BME280;54941;52.220;104.306;2023-03-26T12:16:10;96086.84;;;2.95;52.00
68141;BME280;54941;52.220;104.306;2023-03-26T12:18:38;96092.69;;;3.04;49.34
68141;BME280;54941;52.220;104.306;2023-03-26T12:21:06;96100.38;;;2.87;55.08
68141;BME280;54941;52.220;104.306;2023-03-26T12:23:50;96103.75;;;2.80;50.26
68141;BME280;54941;52.220;104.306;2023-03-26T12:26:33;96085.94;;;3.19;43.45
68141;BME280;54941;52.220;104.306;2023-03-26T12:29:09;96092.63;;;3.51;42.58
68141;BME280;54941;52.220;104.306;2023-03-26T12:31:50;96094.94;;;2.99;56.20
68141;BME280;54941;52.220;104.306;2023-03-26T12:34:18;96098.25;;;2.28;63.86
68141;BME280;54941;52.220;104.306;2023-03-26T12:36:50;96104.75;;;2.22;63.88
68141;BME280;54941;52.220;104.306;2023-03-26T12:39:41;96091.50;;;2.67;48.96
68141;BME280;54941;52.220;104.306;2023-03-26T12:42:24;96083.28;;;3.04;43.61
68141;BME280;54941;52.220;104.306;2023-03-26T12:44:57;96083.97;;;2.98;51.88
68141;BME280;54941;52.220;104.306;2023-03-26T12:47:26;96087.22;;;2.76;56.68
68141;BME280;54941;52.220;104.306;2023-03-26T12:49:56;96088.50;;;2.72;57.49
68141;BME280;54941;52.220;104.306;2023-03-26T12:55:31;96085.16;;;2.55;53.34
68141;BME280;54941;52.220;104.306;2023-03-26T12:58:14;96080.19;;;2.78;51.01
68141;BME280;54941;52.220;104.306;2023-03-26T13:00:53;96082.25;;;2.82;48.50
68141;BME280;54941;52.220;104.306;2023-03-26T13:03:32;96087.69;;;2.71;53.99
68141;BME280;54941;52.220;104.306;2023-03-26T13:06:16;96110.00;;;2.37;57.08
68141;BME280;54941;52.220;104.306;2023-03-26T13:09:04;96108.44;;;2.28;59.10
68141;BME280;54941;52.220;104.306;2023-03-26T13:11:44;96106.50;;;2.54;48.63
68141;BME280;54941;52.220;104.306;2023-03-26T13:15:01;96117.41;;;2.79;50.84
68141;BME280;54941;52.220;104.306;2023-03-26T13:17:37;96125.25;;;2.61;52.00
68141;BME280;54941;52.220;104.306;2023-03-26T13:20:12;96123.97;;;2.73;53.63
68141;BME280;54941;52.220;104.306;2023-03-26T13:22:46;96125.38;;;2.84;54.48
68141;BME280;54941;52.220;104.306;2023-03-26T13:25:26;96114.03;;;2.94;49.44
68141;BME280;54941;52.220;104.306;2023-03-26T13:28:06;96114.59;;;2.50;60.10
68141;BME280;54941;52.220;104.306;2023-03-26T13:30:42;96118.25;;;1.82;62.94
68141;BME280;54941;52.220;104.306;2023-03-26T13:33:25;96117.94;;;1.85;66.20
68141;BME280;54941;52.220;104.306;2023-03-26T13:35:59;96123.97;;;2.01;61.90
68141;BME280;54941;52.220;104.306;2023-03-26T13:38:35;96118.75;;;2.26;58.22
68141;BME280;54941;52.220;104.306;2023-03-26T13:41:08;96119.72;;;2.17;61.86
68141;BME280;54941;52.220;104.306;2023-03-26T13:43:47;96115.56;;;2.08;57.54
68141;BME280;54941;52.220;104.306;2023-03-26T13:46:25;96121.13;;;1.95;62.70
68141;BME280;54941;52.220;104.306;2023-03-26T13:48:57;96125.09;;;1.90;62.99
68141;BME280;54941;52.220;104.306;2023-03-26T13:51:29;96121.44;;;1.92;63.57
68141;BME280;54941;52.220;104.306;2023-03-26T13:54:14;96118.75;;;2.10;57.78
68141;BME280;54941;52.220;104.306;2023-03-26T13:56:44;96108.72;;;2.41;53.50